sensor_id;sensor_type;location;lat;lon;timestamp;P1;durP1;ratioP1;P2;durP2;ratioP2
69532;SDS011;56729;52.036;5.332;2022-07-22T00:00:13;13.43;;;3.28;;
69532;SDS011;56729;52.036;5.332;2022-07-22T00:01:16;18.35;;;3.70;;
69532;SDS011;56729;52.036;5.332;2022-07-22T00:02:18;22.65;;;4.20;;
69532;SDS011;56729;52.036;5.332;2022-07-22T00:03:20;19.27;;;4.25;;
69532;SDS011;56729;52.036;5.332;2022-07-22T00:04:22;23.93;;;3.90;;
69532;SDS011;56729;52.036;5.332;2022-07-22T00:05:24;20.33;;;3.67;;
69532;SDS011;56729;52.036;5.332;2022-07-22T00:06:26;14.23;;;3.58;;
69532;SDS011;56729;52.036;5.332;2022-07-22T00:07:28;16.35;;;4.28;;
69532;SDS011;56729;52.036;5.332;2022-07-22T00:08:31;23.02;;;4.28;;
69532;SDS011;56729;52.036;5.332;2022-07-22T00:09:33;16.50;;;4.22;;
69532;SDS011;56729;52.036;5.332;2022-07-22T00:10:35;17.67;;;3.63;;
69532;SDS011;56729;52.036;5.332;2022-07-22T00:11:37;14.93;;;3.80;;
69532;SDS011;56729;52.036;5.332;2022-07-22T00:12:39;14.77;;;3.28;;
69532;SDS011;56729;52.036;5.332;2022-07-22T00:13:42;22.58;;;3.90;;
69532;SDS011;56729;52.036;5.332;2022-07-22T00:14:44;14.33;;;3.60;;
69532;SDS011;56729;52.036;5.332;2022-07-22T00:15:45;14.75;;;4.32;;
69532;SDS011;56729;52.036;5.332;2022-07-22T00:16:47;17.45;;;3.85;;
69532;SDS011;56729;52.036;5.332;2022-07-22T00:17:49;15.27;;;3.92;;
69532;SDS011;56729;52.036;5.332;2022-07-22T00:18:51;18.77;;;4.03;;
69532;SDS011;56729;52.036;5.332;2022-07-22T00:19:53;19.67;;;4.13;;
69532;SDS011;56729;52.036;5.332;2022-07-22T00:20:55;12.27;;;3.63;;
69532;SDS011;56729;52.036;5.332;2022-07-22T00:21:57;19.55;;;4.10;;
69532;SDS011;56729;52.036;5.332;2022-07-22T00:22:59;14.23;;;3.88;;
69532;SDS011;56729;52.036;5.332;2022-07-22T00:24:01;12.63;;;3.67;;
69532;SDS011;56729;52.036;5.332;2022-07-22T00:25:05;17.10;;;3.73;;
69532;SDS011;56729;52.036;5.332;2022-07-22T00:26:08;19.58;;;3.83;;
69532;SDS011;56729;52.036;5.332;2022-07-22T00:27:10;20.83;;;3.78;;
69532;SDS011;56729;52.036;5.332;2022-07-22T00:28:12;14.80;;;3.17;;
69532;SDS011;56729;52.036;5.332;2022-07-22T00:29:14;16.20;;;4.18;;
69532;SDS011;56729;52.036;5.332;2022-07-22T00:30:16;16.05;;;3.75;;
69532;SDS011;56729;52.036;5.332;2022-07-22T00:31:18;23.23;;;3.80;;
69532;SDS011;56729;52.036;5.332;2022-07-22T00:32:20;15.73;;;3.72;;
69532;SDS011;56729;52.036;5.332;2022-07-22T00:33:22;13.93;;;3.60;;
69532;SDS011;56729;52.036;5.332;2022-07-22T00:34:24;20.10;;;3.88;;
69532;SDS011;56729;52.036;5.332;2022-07-22T00:35:26;17.57;;;3.77;;
69532;SDS011;56729;52.036;5.332;2022-07-22T00:36:31;20.88;;;5.00;;
69532;SDS011;56729;52.036;5.332;2022-07-22T00:37:33;22.50;;;3.70;;
69532;SDS011;56729;52.036;5.332;2022-07-22T00:38:35;11.15;;;3.90;;
69532;SDS011;56729;52.036;5.332;2022-07-22T00:39:37;14.98;;;4.32;;
69532;SDS011;56729;52.036;5.332;2022-07-22T00:40:38;18.33;;;4.10;;
69532;SDS011;56729;52.036;5.332;2022-07-22T00:41:41;16.27;;;4.05;;
69532;SDS011;56729;52.036;5.332;2022-07-22T00:42:43;12.50;;;3.40;;
69532;SDS011;56729;52.036;5.332;2022-07-22T00:44:04;25.35;;;3.80;;
69532;SDS011;56729;52.036;5.332;2022-07-22T00:45:08;19.70;;;4.18;;
69532;SDS011;56729;52.036;5.332;2022-07-22T00:46:10;16.20;;;3.67;;
69532;SDS011;56729;52.036;5.332;2022-07-22T00:47:12;16.52;;;4.10;;
69532;SDS011;56729;52.036;5.332;2022-07-22T00:48:14;17.08;;;3.80;;
69532;SDS011;56729;52.036;5.332;2022-07-22T00:49:16;18.73;;;3.97;;
69532;SDS011;56729;52.036;5.332;2022-07-22T00:50:18;13.50;;;4.95;;
69532;SDS011;56729;52.036;5.332;2022-07-22T00:51:21;13.23;;;4.20;;
69532;SDS011;56729;52.036;5.332;2022-07-22T00:52:24;16.50;;;3.97;;
69532;SDS011;56729;52.036;5.332;2022-07-22T00:53:27;19.90;;;4.32;;
69532;SDS011;56729;52.036;5.332;2022-07-22T00:54:29;18.98;;;4.30;;
69532;SDS011;56729;52.036;5.332;2022-07-22T00:55:33;15.23;;;3.50;;
69532;SDS011;56729;52.036;5.332;2022-07-22T00:56:35;18.50;;;3.60;;
69532;SDS011;56729;52.036;5.332;2022-07-22T00:57:39;15.63;;;3.97;;
69532;SDS011;56729;52.036;5.332;2022-07-22T00:58:42;12.23;;;3.78;;
69532;SDS011;56729;52.036;5.332;2022-07-22T00:59:45;17.20;;;3.80;;
69532;SDS011;56729;52.036;5.332;2022-07-22T01:00:47;14.05;;;4.13;;
69532;SDS011;56729;52.036;5.332;2022-07-22T01:01:49;14.10;;;3.53;;
69532;SDS011;56729;52.036;5.332;2022-07-22T01:02:52;26.05;;;4.10;;
69532;SDS011;56729;52.036;5.332;2022-07-22T01:03:54;15.95;;;4.53;;
69532;SDS011;56729;52.036;5.332;2022-07-22T01:05:02;15.05;;;3.67;;
69532;SDS011;56729;52.036;5.332;2022-07-22T01:06:06;11.68;;;4.22;;
69532;SDS011;56729;52.036;5.332;2022-07-22T01:07:09;13.53;;;3.80;;
69532;SDS011;56729;52.036;5.332;2022-07-22T01:08:12;13.05;;;4.35;;
69532;SDS011;56729;52.036;5.332;2022-07-22T01:09:15;18.63;;;3.97;;
69532;SDS011;56729;52.036;5.332;2022-07-22T01:10:17;9.57;;;3.40;;
69532;SDS011;56729;52.036;5.332;2022-07-22T01:11:20;18.52;;;3.80;;
69532;SDS011;56729;52.036;5.332;2022-07-22T01:12:22;12.15;;;4.18;;
69532;SDS011;56729;52.036;5.332;2022-07-22T01:13:24;17.92;;;3.88;;
69532;SDS011;56729;52.036;5.332;2022-07-22T01:14:26;16.98;;;4.70;;
69532;SDS011;56729;52.036;5.332;2022-07-22T01:15:28;14.45;;;4.15;;
69532;SDS011;56729;52.036;5.332;2022-07-22T01:16:30;19.52;;;4.43;;
69532;SDS011;56729;52.036;5.332;2022-07-22T01:17:32;19.60;;;3.50;;
69532;SDS011;56729;52.036;5.332;2022-07-22T01:18:34;13.63;;;3.88;;
69532;SDS011;56729;52.036;5.332;2022-07-22T01:19:38;13.77;;;4.13;;
69532;SDS011;56729;52.036;5.332;2022-07-22T01:20:41;13.90;;;4.43;;
69532;SDS011;56729;52.036;5.332;2022-07-22T01:21:43;12.85;;;4.03;;
69532;SDS011;56729;52.036;5.332;2022-07-22T01:22:45;13.48;;;3.88;;
69532;SDS011;56729;52.036;5.332;2022-07-22T01:23:47;16.15;;;4.13;;
69532;SDS011;56729;52.036;5.332;2022-07-22T01:24:49;15.35;;;4.30;;
69532;SDS011;56729;52.036;5.332;2022-07-22T01:25:51;14.90;;;4.28;;
69532;SDS011;56729;52.036;5.332;2022-07-22T01:26:53;16.75;;;4.43;;
69532;SDS011;56729;52.036;5.332;2022-07-22T01:27:55;11.50;;;3.80;;
69532;SDS011;56729;52.036;5.332;2022-07-22T01:28:58;17.13;;;4.68;;
69532;SDS011;56729;52.036;5.332;2022-07-22T01:30:02;16.55;;;3.53;;
69532;SDS011;56729;52.036;5.332;2022-07-22T01:31:05;15.98;;;4.30;;
69532;SDS011;56729;52.036;5.332;2022-07-22T01:32:07;16.55;;;3.65;;
69532;SDS011;56729;52.036;5.332;2022-07-22T01:33:09;16.52;;;4.38;;
69532;SDS011;56729;52.036;5.332;2022-07-22T01:34:11;16.45;;;3.78;;
69532;SDS011;56729;52.036;5.332;2022-07-22T01:35:13;17.83;;;4.00;;
69532;SDS011;56729;52.036;5.332;2022-07-22T01:36:15;10.70;;;3.65;;
69532;SDS011;56729;52.036;5.332;2022-07-22T01:37:18;16.52;;;3.72;;
69532;SDS011;56729;52.036;5.332;2022-07-22T01:38:20;13.10;;;4.73;;
69532;SDS011;56729;52.036;5.332;2022-07-22T01:39:22;17.13;;;4.00;;
69532;SDS011;56729;52.036;5.332;2022-07-22T01:40:25;12.43;;;4.53;;
69532;SDS011;56729;52.036;5.332;2022-07-22T01:41:27;18.20;;;4.13;;
69532;SDS011;56729;52.036;5.332;2022-07-22T01:42:29;17.45;;;4.43;;
69532;SDS011;56729;52.036;5.332;2022-07-22T01:43:31;11.20;;;3.90;;
69532;SDS011;56729;52.036;5.332;2022-07-22T01:44:33;13.60;;;3.97;;
69532;SDS011;56729;52.036;5.332;2022-07-22T01:45:35;14.82;;;4.63;;
69532;SDS011;56729;52.036;5.332;2022-07-22T01:46:38;15.48;;;3.70;;
69532;SDS011;56729;52.036;5.332;2022-07-22T01:47:40;11.35;;;3.63;;
69532;SDS011;56729;52.036;5.332;2022-07-22T01:48:42;14.93;;;3.43;;
69532;SDS011;56729;52.036;5.332;2022-07-22T01:49:45;12.05;;;3.78;;
69532;SDS011;56729;52.036;5.332;2022-07-22T01:50:47;15.02;;;4.20;;
69532;SDS011;56729;52.036;5.332;2022-07-22T01:51:51;15.07;;;4.38;;
69532;SDS011;56729;52.036;5.332;2022-07-22T01:52:53;9.68;;;3.70;;
69532;SDS011;56729;52.036;5.332;2022-07-22T01:53:55;12.88;;;4.50;;
69532;SDS011;56729;52.036;5.332;2022-07-22T01:54:57;13.43;;;4.07;;
69532;SDS011;56729;52.036;5.332;2022-07-22T01:55:59;11.90;;;4.15;;
69532;SDS011;56729;52.036;5.332;2022-07-22T01:57:02;20.50;;;3.72;;
69532;SDS011;56729;52.036;5.332;2022-07-22T01:58:05;17.05;;;4.53;;
69532;SDS011;56729;52.036;5.332;2022-07-22T01:59:08;15.87;;;4.97;;
69532;SDS011;56729;52.036;5.332;2022-07-22T02:00:11;21.35;;;4.35;;
69532;SDS011;56729;52.036;5.332;2022-07-22T02:01:16;13.50;;;3.33;;
69532;SDS011;56729;52.036;5.332;2022-07-22T02:02:18;16.75;;;4.65;;
69532;SDS011;56729;52.036;5.332;2022-07-22T02:03:21;15.32;;;4.10;;
69532;SDS011;56729;52.036;5.332;2022-07-22T02:04:22;13.23;;;4.10;;
69532;SDS011;56729;52.036;5.332;2022-07-22T02:05:28;17.83;;;4.10;;
69532;SDS011;56729;52.036;5.332;2022-07-22T02:06:35;23.88;;;4.50;;
69532;SDS011;56729;52.036;5.332;2022-07-22T02:07:37;14.75;;;3.90;;
69532;SDS011;56729;52.036;5.332;2022-07-22T02:08:39;15.52;;;4.38;;
69532;SDS011;56729;52.036;5.332;2022-07-22T02:09:49;16.13;;;4.07;;
69532;SDS011;56729;52.036;5.332;2022-07-22T02:10:51;14.15;;;3.53;;
69532;SDS011;56729;52.036;5.332;2022-07-22T02:11:53;19.58;;;4.40;;
69532;SDS011;56729;52.036;5.332;2022-07-22T02:12:56;14.77;;;3.95;;
69532;SDS011;56729;52.036;5.332;2022-07-22T02:13:59;12.23;;;3.70;;
69532;SDS011;56729;52.036;5.332;2022-07-22T02:15:03;16.50;;;4.22;;
69532;SDS011;56729;52.036;5.332;2022-07-22T02:16:05;14.48;;;3.90;;
69532;SDS011;56729;52.036;5.332;2022-07-22T02:17:13;17.60;;;4.72;;
69532;SDS011;56729;52.036;5.332;2022-07-22T02:18:16;10.20;;;3.97;;
69532;SDS011;56729;52.036;5.332;2022-07-22T02:19:19;12.63;;;4.07;;
69532;SDS011;56729;52.036;5.332;2022-07-22T02:20:21;10.50;;;3.97;;
69532;SDS011;56729;52.036;5.332;2022-07-22T02:21:25;14.48;;;4.68;;
69532;SDS011;56729;52.036;5.332;2022-07-22T02:22:32;16.02;;;4.32;;
69532;SDS011;56729;52.036;5.332;2022-07-22T02:23:35;17.08;;;4.35;;
69532;SDS011;56729;52.036;5.332;2022-07-22T02:24:38;15.00;;;3.95;;
69532;SDS011;56729;52.036;5.332;2022-07-22T02:25:40;13.65;;;4.13;;
69532;SDS011;56729;52.036;5.332;2022-07-22T02:26:44;15.65;;;4.18;;
69532;SDS011;56729;52.036;5.332;2022-07-22T02:27:47;19.77;;;4.40;;
69532;SDS011;56729;52.036;5.332;2022-07-22T02:28:48;9.80;;;4.05;;
69532;SDS011;56729;52.036;5.332;2022-07-22T02:29:50;11.82;;;4.13;;
69532;SDS011;56729;52.036;5.332;2022-07-22T02:30:52;17.37;;;4.20;;
69532;SDS011;56729;52.036;5.332;2022-07-22T02:31:54;14.75;;;4.10;;
69532;SDS011;56729;52.036;5.332;2022-07-22T02:32:57;13.77;;;3.75;;
69532;SDS011;56729;52.036;5.332;2022-07-22T02:33:59;16.92;;;4.35;;
69532;SDS011;56729;52.036;5.332;2022-07-22T02:35:03;14.30;;;4.55;;
69532;SDS011;56729;52.036;5.332;2022-07-22T02:36:06;10.40;;;3.72;;
69532;SDS011;56729;52.036;5.332;2022-07-22T02:37:09;18.23;;;3.33;;
69532;SDS011;56729;52.036;5.332;2022-07-22T02:38:11;11.02;;;4.07;;
69532;SDS011;56729;52.036;5.332;2022-07-22T02:39:13;15.65;;;4.28;;
69532;SDS011;56729;52.036;5.332;2022-07-22T02:40:15;15.23;;;3.88;;
69532;SDS011;56729;52.036;5.332;2022-07-22T02:41:18;15.70;;;4.20;;
69532;SDS011;56729;52.036;5.332;2022-07-22T02:42:25;16.65;;;4.28;;
69532;SDS011;56729;52.036;5.332;2022-07-22T02:43:27;14.63;;;3.50;;
69532;SDS011;56729;52.036;5.332;2022-07-22T02:44:29;15.88;;;3.85;;
69532;SDS011;56729;52.036;5.332;2022-07-22T02:45:32;17.08;;;3.83;;
69532;SDS011;56729;52.036;5.332;2022-07-22T02:46:34;19.05;;;3.88;;
69532;SDS011;56729;52.036;5.332;2022-07-22T02:47:50;15.10;;;3.80;;
69532;SDS011;56729;52.036;5.332;2022-07-22T02:48:56;17.67;;;3.80;;
69532;SDS011;56729;52.036;5.332;2022-07-22T02:49:59;11.20;;;3.80;;
69532;SDS011;56729;52.036;5.332;2022-07-22T02:51:02;10.18;;;3.40;;
69532;SDS011;56729;52.036;5.332;2022-07-22T02:52:04;11.77;;;3.37;;
69532;SDS011;56729;52.036;5.332;2022-07-22T02:53:06;10.30;;;3.88;;
69532;SDS011;56729;52.036;5.332;2022-07-22T02:54:12;18.65;;;3.45;;
69532;SDS011;56729;52.036;5.332;2022-07-22T02:55:15;13.13;;;3.38;;
69532;SDS011;56729;52.036;5.332;2022-07-22T02:56:18;10.68;;;3.60;;
69532;SDS011;56729;52.036;5.332;2022-07-22T02:57:21;11.75;;;3.60;;
69532;SDS011;56729;52.036;5.332;2022-07-22T02:58:23;13.18;;;3.95;;
69532;SDS011;56729;52.036;5.332;2022-07-22T02:59:25;11.55;;;3.95;;
69532;SDS011;56729;52.036;5.332;2022-07-22T03:00:26;16.50;;;3.67;;
69532;SDS011;56729;52.036;5.332;2022-07-22T03:01:28;14.13;;;3.80;;
69532;SDS011;56729;52.036;5.332;2022-07-22T03:02:33;12.37;;;3.83;;
69532;SDS011;56729;52.036;5.332;2022-07-22T03:03:36;15.23;;;3.67;;
69532;SDS011;56729;52.036;5.332;2022-07-22T03:04:39;18.38;;;3.90;;
69532;SDS011;56729;52.036;5.332;2022-07-22T03:05:41;12.05;;;3.00;;
69532;SDS011;56729;52.036;5.332;2022-07-22T03:07:05;13.27;;;3.92;;
69532;SDS011;56729;52.036;5.332;2022-07-22T03:08:07;13.30;;;3.17;;
69532;SDS011;56729;52.036;5.332;2022-07-22T03:09:09;9.15;;;3.67;;
69532;SDS011;56729;52.036;5.332;2022-07-22T03:10:16;10.40;;;4.00;;
69532;SDS011;56729;52.036;5.332;2022-07-22T03:11:18;10.20;;;3.10;;
69532;SDS011;56729;52.036;5.332;2022-07-22T03:12:20;10.25;;;3.60;;
69532;SDS011;56729;52.036;5.332;2022-07-22T03:13:22;15.33;;;3.40;;
69532;SDS011;56729;52.036;5.332;2022-07-22T03:14:24;9.52;;;3.40;;
69532;SDS011;56729;52.036;5.332;2022-07-22T03:15:27;13.77;;;3.42;;
69532;SDS011;56729;52.036;5.332;2022-07-22T03:16:29;12.10;;;3.75;;
69532;SDS011;56729;52.036;5.332;2022-07-22T03:17:34;15.70;;;4.25;;
69532;SDS011;56729;52.036;5.332;2022-07-22T03:18:40;19.58;;;4.43;;
69532;SDS011;56729;52.036;5.332;2022-07-22T03:19:42;11.10;;;3.38;;
69532;SDS011;56729;52.036;5.332;2022-07-22T03:20:44;14.20;;;4.00;;
69532;SDS011;56729;52.036;5.332;2022-07-22T03:21:46;14.35;;;4.03;;
69532;SDS011;56729;52.036;5.332;2022-07-22T03:22:49;13.77;;;4.03;;
69532;SDS011;56729;52.036;5.332;2022-07-22T03:23:51;10.47;;;3.30;;
69532;SDS011;56729;52.036;5.332;2022-07-22T03:24:55;15.00;;;3.45;;
69532;SDS011;56729;52.036;5.332;2022-07-22T03:25:57;12.15;;;3.90;;
69532;SDS011;56729;52.036;5.332;2022-07-22T03:26:59;12.75;;;3.72;;
69532;SDS011;56729;52.036;5.332;2022-07-22T03:28:04;19.98;;;4.00;;
69532;SDS011;56729;52.036;5.332;2022-07-22T03:29:06;17.58;;;3.78;;
69532;SDS011;56729;52.036;5.332;2022-07-22T03:30:09;13.63;;;3.70;;
69532;SDS011;56729;52.036;5.332;2022-07-22T03:31:13;10.07;;;3.90;;
69532;SDS011;56729;52.036;5.332;2022-07-22T03:32:17;13.35;;;4.15;;
69532;SDS011;56729;52.036;5.332;2022-07-22T03:33:21;14.43;;;3.45;;
69532;SDS011;56729;52.036;5.332;2022-07-22T03:34:23;15.37;;;3.10;;
69532;SDS011;56729;52.036;5.332;2022-07-22T03:35:32;21.08;;;4.25;;
69532;SDS011;56729;52.036;5.332;2022-07-22T03:36:35;13.55;;;3.30;;
69532;SDS011;56729;52.036;5.332;2022-07-22T03:37:37;16.02;;;3.95;;
69532;SDS011;56729;52.036;5.332;2022-07-22T03:38:39;14.15;;;3.65;;
69532;SDS011;56729;52.036;5.332;2022-07-22T03:39:41;15.13;;;3.92;;
69532;SDS011;56729;52.036;5.332;2022-07-22T03:40:45;12.68;;;3.85;;
69532;SDS011;56729;52.036;5.332;2022-07-22T03:41:47;12.43;;;4.03;;
69532;SDS011;56729;52.036;5.332;2022-07-22T03:42:49;12.55;;;3.67;;
69532;SDS011;56729;52.036;5.332;2022-07-22T03:43:52;14.23;;;3.58;;
69532;SDS011;56729;52.036;5.332;2022-07-22T03:44:54;13.27;;;3.43;;
69532;SDS011;56729;52.036;5.332;2022-07-22T03:45:56;8.23;;;3.28;;
69532;SDS011;56729;52.036;5.332;2022-07-22T03:46:59;11.77;;;3.60;;
69532;SDS011;56729;52.036;5.332;2022-07-22T03:48:01;13.93;;;3.83;;
69532;SDS011;56729;52.036;5.332;2022-07-22T03:49:09;18.27;;;3.53;;
69532;SDS011;56729;52.036;5.332;2022-07-22T03:50:11;11.07;;;3.50;;
69532;SDS011;56729;52.036;5.332;2022-07-22T03:51:13;13.23;;;3.33;;
69532;SDS011;56729;52.036;5.332;2022-07-22T03:52:15;13.30;;;3.47;;
69532;SDS011;56729;52.036;5.332;2022-07-22T03:53:17;14.60;;;3.55;;
69532;SDS011;56729;52.036;5.332;2022-07-22T03:54:19;9.80;;;4.03;;
69532;SDS011;56729;52.036;5.332;2022-07-22T03:55:21;14.53;;;3.70;;
69532;SDS011;56729;52.036;5.332;2022-07-22T03:56:26;15.35;;;4.20;;
69532;SDS011;56729;52.036;5.332;2022-07-22T03:57:28;12.18;;;3.13;;
69532;SDS011;56729;52.036;5.332;2022-07-22T03:58:37;12.57;;;3.30;;
69532;SDS011;56729;52.036;5.332;2022-07-22T03:59:39;10.77;;;3.47;;
69532;SDS011;56729;52.036;5.332;2022-07-22T04:00:41;10.90;;;3.45;;
69532;SDS011;56729;52.036;5.332;2022-07-22T04:01:43;11.98;;;3.33;;
69532;SDS011;56729;52.036;5.332;2022-07-22T04:02:46;12.63;;;3.42;;
69532;SDS011;56729;52.036;5.332;2022-07-22T04:04:08;13.57;;;3.53;;
69532;SDS011;56729;52.036;5.332;2022-07-22T04:05:14;10.95;;;3.40;;
69532;SDS011;56729;52.036;5.332;2022-07-22T04:06:17;12.97;;;3.00;;
69532;SDS011;56729;52.036;5.332;2022-07-22T04:07:24;11.38;;;3.38;;
69532;SDS011;56729;52.036;5.332;2022-07-22T04:08:26;12.68;;;3.45;;
69532;SDS011;56729;52.036;5.332;2022-07-22T04:09:28;17.10;;;3.92;;
69532;SDS011;56729;52.036;5.332;2022-07-22T04:10:30;14.88;;;3.67;;
69532;SDS011;56729;52.036;5.332;2022-07-22T04:11:32;17.55;;;3.90;;
69532;SDS011;56729;52.036;5.332;2022-07-22T04:12:35;10.38;;;3.65;;
69532;SDS011;56729;52.036;5.332;2022-07-22T04:13:50;15.82;;;3.63;;
69532;SDS011;56729;52.036;5.332;2022-07-22T04:14:52;14.82;;;4.10;;
69532;SDS011;56729;52.036;5.332;2022-07-22T04:15:54;11.57;;;3.30;;
69532;SDS011;56729;52.036;5.332;2022-07-22T04:16:57;10.67;;;3.30;;
69532;SDS011;56729;52.036;5.332;2022-07-22T04:17:59;19.02;;;3.78;;
69532;SDS011;56729;52.036;5.332;2022-07-22T04:19:01;10.48;;;2.83;;
69532;SDS011;56729;52.036;5.332;2022-07-22T04:20:33;13.27;;;3.50;;
69532;SDS011;56729;52.036;5.332;2022-07-22T04:21:53;11.60;;;3.38;;
69532;SDS011;56729;52.036;5.332;2022-07-22T04:22:59;12.68;;;3.58;;
69532;SDS011;56729;52.036;5.332;2022-07-22T04:24:02;13.30;;;3.30;;
69532;SDS011;56729;52.036;5.332;2022-07-22T04:25:05;13.02;;;3.60;;
69532;SDS011;56729;52.036;5.332;2022-07-22T04:26:07;9.70;;;3.53;;
69532;SDS011;56729;52.036;5.332;2022-07-22T04:27:09;12.43;;;4.32;;
69532;SDS011;56729;52.036;5.332;2022-07-22T04:28:11;11.13;;;3.30;;
69532;SDS011;56729;52.036;5.332;2022-07-22T04:29:15;13.10;;;3.40;;
69532;SDS011;56729;52.036;5.332;2022-07-22T04:30:17;14.32;;;3.15;;
69532;SDS011;56729;52.036;5.332;2022-07-22T04:31:22;13.02;;;3.85;;
69532;SDS011;56729;52.036;5.332;2022-07-22T04:32:31;12.65;;;3.65;;
69532;SDS011;56729;52.036;5.332;2022-07-22T04:33:33;15.75;;;3.22;;
69532;SDS011;56729;52.036;5.332;2022-07-22T04:34:35;8.77;;;3.45;;
69532;SDS011;56729;52.036;5.332;2022-07-22T04:35:37;12.60;;;3.72;;
69532;SDS011;56729;52.036;5.332;2022-07-22T04:36:46;10.80;;;3.65;;
69532;SDS011;56729;52.036;5.332;2022-07-22T04:37:50;13.57;;;4.15;;
69532;SDS011;56729;52.036;5.332;2022-07-22T04:38:52;16.10;;;3.93;;
69532;SDS011;56729;52.036;5.332;2022-07-22T04:39:55;14.65;;;4.10;;
69532;SDS011;56729;52.036;5.332;2022-07-22T04:40:57;9.52;;;3.63;;
69532;SDS011;56729;52.036;5.332;2022-07-22T04:41:59;12.50;;;3.55;;
69532;SDS011;56729;52.036;5.332;2022-07-22T04:43:03;18.10;;;3.90;;
69532;SDS011;56729;52.036;5.332;2022-07-22T04:44:04;14.60;;;3.22;;
69532;SDS011;56729;52.036;5.332;2022-07-22T04:45:07;11.30;;;3.40;;
69532;SDS011;56729;52.036;5.332;2022-07-22T04:46:09;11.63;;;3.50;;
69532;SDS011;56729;52.036;5.332;2022-07-22T04:47:15;8.05;;;3.47;;
69532;SDS011;56729;52.036;5.332;2022-07-22T04:48:18;14.93;;;3.85;;
69532;SDS011;56729;52.036;5.332;2022-07-22T04:49:21;16.20;;;3.40;;
69532;SDS011;56729;52.036;5.332;2022-07-22T04:50:23;16.95;;;3.67;;
69532;SDS011;56729;52.036;5.332;2022-07-22T04:51:33;12.40;;;3.25;;
69532;SDS011;56729;52.036;5.332;2022-07-22T04:52:38;12.18;;;3.40;;
69532;SDS011;56729;52.036;5.332;2022-07-22T04:53:49;11.40;;;3.20;;
69532;SDS011;56729;52.036;5.332;2022-07-22T04:54:54;9.10;;;2.53;;
69532;SDS011;56729;52.036;5.332;2022-07-22T04:55:57;10.48;;;2.75;;
69532;SDS011;56729;52.036;5.332;2022-07-22T04:56:59;8.27;;;3.25;;
69532;SDS011;56729;52.036;5.332;2022-07-22T04:58:01;10.70;;;3.83;;
69532;SDS011;56729;52.036;5.332;2022-07-22T04:59:03;9.05;;;3.17;;
69532;SDS011;56729;52.036;5.332;2022-07-22T05:00:06;11.37;;;3.03;;
69532;SDS011;56729;52.036;5.332;2022-07-22T05:01:18;9.07;;;2.67;;
69532;SDS011;56729;52.036;5.332;2022-07-22T05:02:23;11.38;;;2.60;;
69532;SDS011;56729;52.036;5.332;2022-07-22T05:03:25;9.32;;;3.00;;
69532;SDS011;56729;52.036;5.332;2022-07-22T05:04:28;11.68;;;2.75;;
69532;SDS011;56729;52.036;5.332;2022-07-22T05:05:30;8.63;;;2.38;;
69532;SDS011;56729;52.036;5.332;2022-07-22T05:06:33;10.75;;;2.70;;
69532;SDS011;56729;52.036;5.332;2022-07-22T05:07:36;9.27;;;2.63;;
69532;SDS011;56729;52.036;5.332;2022-07-22T05:08:38;9.02;;;2.92;;
69532;SDS011;56729;52.036;5.332;2022-07-22T05:09:40;18.45;;;2.95;;
69532;SDS011;56729;52.036;5.332;2022-07-22T05:10:45;8.80;;;2.50;;
69532;SDS011;56729;52.036;5.332;2022-07-22T05:11:47;12.23;;;3.45;;
69532;SDS011;56729;52.036;5.332;2022-07-22T05:12:52;10.80;;;2.80;;
69532;SDS011;56729;52.036;5.332;2022-07-22T05:13:54;9.07;;;2.72;;
69532;SDS011;56729;52.036;5.332;2022-07-22T05:14:56;9.55;;;2.47;;
69532;SDS011;56729;52.036;5.332;2022-07-22T05:16:01;9.00;;;2.40;;
69532;SDS011;56729;52.036;5.332;2022-07-22T05:17:10;11.93;;;2.65;;
69532;SDS011;56729;52.036;5.332;2022-07-22T05:18:26;11.23;;;3.33;;
69532;SDS011;56729;52.036;5.332;2022-07-22T05:19:28;8.35;;;2.60;;
69532;SDS011;56729;52.036;5.332;2022-07-22T05:20:30;5.57;;;2.70;;
69532;SDS011;56729;52.036;5.332;2022-07-22T05:21:32;9.80;;;2.80;;
69532;SDS011;56729;52.036;5.332;2022-07-22T05:22:34;8.48;;;3.10;;
69532;SDS011;56729;52.036;5.332;2022-07-22T05:23:41;8.48;;;2.58;;
69532;SDS011;56729;52.036;5.332;2022-07-22T05:24:45;8.63;;;2.53;;
69532;SDS011;56729;52.036;5.332;2022-07-22T05:25:48;10.93;;;3.08;;
69532;SDS011;56729;52.036;5.332;2022-07-22T05:26:50;9.05;;;3.10;;
69532;SDS011;56729;52.036;5.332;2022-07-22T05:27:53;8.90;;;2.83;;
69532;SDS011;56729;52.036;5.332;2022-07-22T05:29:17;8.05;;;2.65;;
69532;SDS011;56729;52.036;5.332;2022-07-22T05:30:19;7.60;;;2.65;;
69532;SDS011;56729;52.036;5.332;2022-07-22T05:31:24;13.85;;;3.08;;
69532;SDS011;56729;52.036;5.332;2022-07-22T05:32:27;9.90;;;2.70;;
69532;SDS011;56729;52.036;5.332;2022-07-22T05:33:37;7.00;;;3.13;;
69532;SDS011;56729;52.036;5.332;2022-07-22T05:34:42;5.82;;;2.30;;
69532;SDS011;56729;52.036;5.332;2022-07-22T05:35:44;6.55;;;2.83;;
69532;SDS011;56729;52.036;5.332;2022-07-22T05:36:48;14.27;;;3.17;;
69532;SDS011;56729;52.036;5.332;2022-07-22T05:37:50;7.00;;;2.33;;
69532;SDS011;56729;52.036;5.332;2022-07-22T05:38:52;5.13;;;2.08;;
69532;SDS011;56729;52.036;5.332;2022-07-22T05:39:55;6.97;;;2.15;;
69532;SDS011;56729;52.036;5.332;2022-07-22T05:40:57;8.80;;;2.50;;
69532;SDS011;56729;52.036;5.332;2022-07-22T05:41:59;8.93;;;2.70;;
69532;SDS011;56729;52.036;5.332;2022-07-22T05:43:01;8.17;;;2.53;;
69532;SDS011;56729;52.036;5.332;2022-07-22T05:44:04;8.60;;;2.60;;
69532;SDS011;56729;52.036;5.332;2022-07-22T05:45:07;7.43;;;2.60;;
69532;SDS011;56729;52.036;5.332;2022-07-22T05:46:11;8.77;;;2.25;;
69532;SDS011;56729;52.036;5.332;2022-07-22T05:47:13;11.65;;;2.78;;
69532;SDS011;56729;52.036;5.332;2022-07-22T05:48:15;8.35;;;2.30;;
69532;SDS011;56729;52.036;5.332;2022-07-22T05:49:16;7.45;;;2.25;;
69532;SDS011;56729;52.036;5.332;2022-07-22T05:50:28;11.20;;;2.65;;
69532;SDS011;56729;52.036;5.332;2022-07-22T05:51:30;8.93;;;2.50;;
69532;SDS011;56729;52.036;5.332;2022-07-22T05:52:34;13.38;;;2.47;;
69532;SDS011;56729;52.036;5.332;2022-07-22T05:53:37;6.67;;;2.33;;
69532;SDS011;56729;52.036;5.332;2022-07-22T05:54:40;6.63;;;2.40;;
69532;SDS011;56729;52.036;5.332;2022-07-22T05:55:43;7.82;;;2.63;;
69532;SDS011;56729;52.036;5.332;2022-07-22T05:56:45;9.82;;;2.60;;
69532;SDS011;56729;52.036;5.332;2022-07-22T05:57:47;10.20;;;2.03;;
69532;SDS011;56729;52.036;5.332;2022-07-22T05:58:50;7.00;;;2.00;;
69532;SDS011;56729;52.036;5.332;2022-07-22T05:59:52;9.40;;;2.42;;
69532;SDS011;56729;52.036;5.332;2022-07-22T06:00:54;10.38;;;2.30;;
69532;SDS011;56729;52.036;5.332;2022-07-22T06:01:57;7.50;;;2.08;;
69532;SDS011;56729;52.036;5.332;2022-07-22T06:03:18;8.70;;;2.45;;
69532;SDS011;56729;52.036;5.332;2022-07-22T06:04:20;11.73;;;2.30;;
69532;SDS011;56729;52.036;5.332;2022-07-22T06:05:23;5.63;;;2.42;;
69532;SDS011;56729;52.036;5.332;2022-07-22T06:06:43;8.25;;;2.05;;
69532;SDS011;56729;52.036;5.332;2022-07-22T06:07:45;6.70;;;2.17;;
69532;SDS011;56729;52.036;5.332;2022-07-22T06:08:58;12.93;;;2.47;;
69532;SDS011;56729;52.036;5.332;2022-07-22T06:10:01;5.18;;;2.00;;
69532;SDS011;56729;52.036;5.332;2022-07-22T06:11:06;7.15;;;2.13;;
69532;SDS011;56729;52.036;5.332;2022-07-22T06:12:08;9.10;;;2.30;;
69532;SDS011;56729;52.036;5.332;2022-07-22T06:13:10;7.93;;;2.03;;
69532;SDS011;56729;52.036;5.332;2022-07-22T06:14:14;5.28;;;1.90;;
69532;SDS011;56729;52.036;5.332;2022-07-22T06:15:23;9.77;;;1.83;;
69532;SDS011;56729;52.036;5.332;2022-07-22T06:16:27;8.00;;;2.25;;
69532;SDS011;56729;52.036;5.332;2022-07-22T06:17:34;8.32;;;2.50;;
69532;SDS011;56729;52.036;5.332;2022-07-22T06:18:36;5.65;;;2.30;;